Moatsville, West Virginia
Current Conditions -  °F | °C
As of 6:53 PM on Monday 24 Nov 2014 (Local Time) from KCKB Reporting Station
Clear Clear  
Wind Chill: 61°   Ceiling: Unl
Heat Index: 61°   Visibility: 10mi
Dew Point: 39°   Wind: 17mph
Humidity: 44%   Direction: 250°WSW
Pressure: 29.71"   Gusts: 24mph
Location:  39.21°N, 79.93°W
Report Text: KCKB 242353Z 25015G21KT 10SM CLR 16/04 A2971 RMK AO2 PK WND 27032/2312 SLP052 T01610039 10211 20156 51046
Loading
Personal Weather Stations






























Interactive Weather Map New forecast layout! Learn more

10-Day Weather Forecast

Advertisements
Track Severe Weather on mobile